Airfield :
LOGIN :

Register | Disclaimer

   EN    FR    IT 

 










Legend :    VFR   Marginal VFR   IFR   Intensive IFR   Very Intensive IFR
Visi :
Ceiling :
>= 8 km
>= 3000ft
5 to 8 km
1000 to 3000 ft
1500m to 5 km
500 to 1000 ft
800 to 1500m
200 to 500 ft
< 800m
< 200 ft
Symbols :   Thunderstorms  Fog  Heavy snow  Heavy precipitations  Wind > 20 kt
SIGMETs :     Misc.  Thunderstorms  Icing  Turbulence  Mountain Waves  Volcanic Ashes






- Airport Elevation : 101 ft
- IATA code : GLO


EGBJ - Gloucestershire

CURRENT METAR :
  • 071020Z 31004KT 9999 -SHRA SCT032 10/03 Q1016

EXPIRED METARs :
  • 070950Z 32004KT 260V020 9999 SCT032 11/03 Q1016
  • 070920Z 29004KT 250V340 9999 SCT032 11/03 Q1016
  • 070850Z 32004KT 260V010 9999 FEW028 10/03 Q1016
  • 070820Z 29005KT 230V340 9999 FEW025 10/03 Q1016
  • 070750Z 29004KT 240V320 9999 FEW025 09/04 Q1016

TAF TAF EGBJ
Valid from the 07 at 09:00 until the 07 at 18:00 UTC


070756Z 0709/0718 29006KT 9999 FEW045
BECMG 0711/0714 23010KT



MET'MAP, your aeronautical weather chart ! - Copyright ORBIFLY December 2007 - Disclaimer

ORBIFLY MET'MAP TEAM :

Programming & Development : Alexandra Zaïnal
Concept & original design : Baudouin d'Aumeries
Assistance for programming : Marc-Olivier Méhu
Technical & hardware support : Manuel Goepfert

Contact : metmap@orbifly.com




SOURCES & CREDITS :

   NOAA